sim
Sign-in with your pilot id or email,
or register
Callsign
Passwort

Schedule Details

Flight Number: DLH2111
Departure: Bremen Airport (EDDW) at 12:20
Arrival: Munich Airport (EDDM) at 13:30
Route: Lufthansa Passenger Schedule. Enter filed route here before submitting Pirep.

Weather Information
Getting current METAR information for EDDW 241720Z 14003KT CAVOK 15/08 Q1001 NOSIG
Getting current METAR information for EDDM 241720Z 08005KT CAVOK 18/13 Q1006 NOSIG

Schedule Frequency

Route Map